Pagrindinis puslapis
METAR-TAF:

METAR-TAF

Oro uostai :

Simferopolis, Rusija

platuma: 45-03-08N, ilguma: 033-58-31E, Aukštis: 195 m

Dabartinis oras

Ataskaita buvo paskelbta 39 minutes, ne 08:30 UTC
Vėjas 2 kt nuo kintamojo kryptimis
Temperatūra 17°C
Drėgmė 77%
Slėgis 1018 hPa
Matomumas 10 km arba daugiau
Mažai debesys ne aukštis 1000 ft

METAR: URFF 180830Z VRB01MPS 9999 FEW010 17/13 Q1018 R19/190095 TEMPO 3100 BR BKN002

Laikas: 12:09 (09:09 UTC)

Prognozė

Ataskaita buvo paskelbta 1 valandą ir 19 minutes, ne 07:50 UTC
Prognozė galioja nuo 18 metu 09 UTC su 19 metu 09 UTC
Vėjas 6 kt iš Pietvakarių
Matomumas: 5000 m
Mažai debesys ne aukštis 200 ft
Išsisklaidę debesys ne aukštis 1500 ft
rūkana
Laikinai
nuo 18 metu 14 UTC su 18 metu 16 UTC
Matomumas: 1700 m
Su prošvaistėmis ne aukštis 400 ft
rūkana
Tapsmas
nuo 18 metu 16 UTC su 18 metu 18 UTC
Matomumas: 0300 m
Apsiniaukę ne aukštis 100 ft
rūkas

TAF: URFF 180750Z 1809/1909 23003MPS 5000 BR FEW002 SCT015 TEMPO 1814/1816 1700 BR BKN004 BECMG 1816/1818 0300 FG OVC001

Orai ataskaitas ir orų prognozės (METAR, TAF).

turimą stotys yra geltonos ir raudonos taškus žemėlapyje.

Perkelti pele per norėdami pamatyti stoties vardą.

Tada spustelėkite, norėdami matyti oro stebėjimo ir prognozės.

Norėdami pakeisti žemėlapį: spustelėkite ant žalios mygtukų su juodo kryžiaus žemyn,; žalią mygtuką su brūkšneliu, jei norite nutolinti; arba žalių rodyklių gretimoms žemėlapius.


METAR-TAF: